sensor_id;sensor_type;location;lat;lon;timestamp;P1;durP1;ratioP1;P2;durP2;ratioP2
61003;SDS011;46889;37.310;13.582;2022-11-15T00:01:14;11.48;;;4.75;;
61003;SDS011;46889;37.310;13.582;2022-11-15T00:03:42;13.70;;;5.00;;
61003;SDS011;46889;37.310;13.582;2022-11-15T00:06:10;11.75;;;5.05;;
61003;SDS011;46889;37.310;13.582;2022-11-15T00:08:37;11.18;;;4.82;;
61003;SDS011;46889;37.310;13.582;2022-11-15T00:11:03;13.37;;;5.10;;
61003;SDS011;46889;37.310;13.582;2022-11-15T00:13:30;16.45;;;5.57;;
61003;SDS011;46889;37.310;13.582;2022-11-15T00:15:57;12.43;;;4.63;;
61003;SDS011;46889;37.310;13.582;2022-11-15T00:18:25;10.50;;;4.70;;
61003;SDS011;46889;37.310;13.582;2022-11-15T00:20:55;13.70;;;5.20;;
61003;SDS011;46889;37.310;13.582;2022-11-15T00:23:27;9.88;;;5.00;;
61003;SDS011;46889;37.310;13.582;2022-11-15T00:25:56;9.40;;;4.80;;
61003;SDS011;46889;37.310;13.582;2022-11-15T00:28:25;10.05;;;4.88;;
61003;SDS011;46889;37.310;13.582;2022-11-15T00:30:52;8.07;;;4.22;;
61003;SDS011;46889;37.310;13.582;2022-11-15T00:33:19;10.50;;;4.68;;
61003;SDS011;46889;37.310;13.582;2022-11-15T00:35:46;12.05;;;5.13;;
61003;SDS011;46889;37.310;13.582;2022-11-15T00:38:14;8.93;;;4.65;;
61003;SDS011;46889;37.310;13.582;2022-11-15T00:43:07;10.02;;;4.20;;
61003;SDS011;46889;37.310;13.582;2022-11-15T00:48:00;9.20;;;4.60;;
61003;SDS011;46889;37.310;13.582;2022-11-15T00:50:26;10.93;;;4.37;;
61003;SDS011;46889;37.310;13.582;2022-11-15T00:52:52;9.43;;;4.80;;
61003;SDS011;46889;37.310;13.582;2022-11-15T00:55:19;9.57;;;4.70;;
61003;SDS011;46889;37.310;13.582;2022-11-15T00:57:46;13.05;;;4.70;;
61003;SDS011;46889;37.310;13.582;2022-11-15T01:00:13;13.32;;;5.13;;
61003;SDS011;46889;37.310;13.582;2022-11-15T01:02:39;9.45;;;4.85;;
61003;SDS011;46889;37.310;13.582;2022-11-15T01:05:06;8.95;;;4.47;;
61003;SDS011;46889;37.310;13.582;2022-11-15T01:07:32;10.75;;;4.65;;
61003;SDS011;46889;37.310;13.582;2022-11-15T01:09:58;8.60;;;5.35;;
61003;SDS011;46889;37.310;13.582;2022-11-15T01:12:24;11.00;;;4.67;;
61003;SDS011;46889;37.310;13.582;2022-11-15T01:14:52;10.17;;;4.73;;
61003;SDS011;46889;37.310;13.582;2022-11-15T01:17:18;7.88;;;4.07;;
61003;SDS011;46889;37.310;13.582;2022-11-15T01:19:44;5.78;;;3.78;;
61003;SDS011;46889;37.310;13.582;2022-11-15T01:22:12;10.57;;;5.10;;
61003;SDS011;46889;37.310;13.582;2022-11-15T01:24:40;12.45;;;4.60;;
61003;SDS011;46889;37.310;13.582;2022-11-15T01:27:11;7.97;;;4.57;;
61003;SDS011;46889;37.310;13.582;2022-11-15T01:29:37;12.52;;;4.90;;
61003;SDS011;46889;37.310;13.582;2022-11-15T01:32:05;10.25;;;4.97;;
61003;SDS011;46889;37.310;13.582;2022-11-15T01:34:32;11.75;;;5.35;;
61003;SDS011;46889;37.310;13.582;2022-11-15T01:36:59;8.90;;;4.75;;
61003;SDS011;46889;37.310;13.582;2022-11-15T01:41:52;14.98;;;6.35;;
61003;SDS011;46889;37.310;13.582;2022-11-15T01:47:19;8.30;;;4.75;;
61003;SDS011;46889;37.310;13.582;2022-11-15T01:49:59;7.35;;;3.92;;
61003;SDS011;46889;37.310;13.582;2022-11-15T01:52:30;13.60;;;4.45;;
61003;SDS011;46889;37.310;13.582;2022-11-15T01:55:02;14.15;;;4.15;;
61003;SDS011;46889;37.310;13.582;2022-11-15T01:57:34;11.25;;;4.40;;
61003;SDS011;46889;37.310;13.582;2022-11-15T02:00:02;7.45;;;4.13;;
61003;SDS011;46889;37.310;13.582;2022-11-15T02:02:29;7.47;;;4.57;;
61003;SDS011;46889;37.310;13.582;2022-11-15T02:04:57;8.77;;;4.78;;
61003;SDS011;46889;37.310;13.582;2022-11-15T02:07:26;7.10;;;4.22;;
61003;SDS011;46889;37.310;13.582;2022-11-15T02:09:58;8.73;;;4.60;;
61003;SDS011;46889;37.310;13.582;2022-11-15T02:12:31;10.13;;;4.90;;
61003;SDS011;46889;37.310;13.582;2022-11-15T02:14:59;10.48;;;4.88;;
61003;SDS011;46889;37.310;13.582;2022-11-15T02:20:16;8.00;;;4.20;;
61003;SDS011;46889;37.310;13.582;2022-11-15T02:25:39;10.65;;;4.32;;
61003;SDS011;46889;37.310;13.582;2022-11-15T02:31:28;7.28;;;3.83;;
61003;SDS011;46889;37.310;13.582;2022-11-15T02:34:34;6.32;;;4.13;;
61003;SDS011;46889;37.310;13.582;2022-11-15T02:40:17;11.27;;;4.53;;
61003;SDS011;46889;37.310;13.582;2022-11-15T02:43:12;9.95;;;4.15;;
61003;SDS011;46889;37.310;13.582;2022-11-15T02:46:20;6.70;;;3.05;;
61003;SDS011;46889;37.310;13.582;2022-11-15T02:49:27;10.23;;;4.22;;
61003;SDS011;46889;37.310;13.582;2022-11-15T02:51:57;6.55;;;3.45;;
61003;SDS011;46889;37.310;13.582;2022-11-15T02:54:28;6.93;;;3.88;;
61003;SDS011;46889;37.310;13.582;2022-11-15T02:56:58;8.77;;;3.70;;
61003;SDS011;46889;37.310;13.582;2022-11-15T03:10:52;7.68;;;4.45;;
61003;SDS011;46889;37.310;13.582;2022-11-15T03:13:39;13.23;;;4.57;;
61003;SDS011;46889;37.310;13.582;2022-11-15T03:18:57;11.68;;;3.70;;
61003;SDS011;46889;37.310;13.582;2022-11-15T03:21:42;8.75;;;4.20;;
61003;SDS011;46889;37.310;13.582;2022-11-15T03:24:10;8.57;;;3.83;;
61003;SDS011;46889;37.310;13.582;2022-11-15T03:26:40;8.40;;;3.90;;
61003;SDS011;46889;37.310;13.582;2022-11-15T03:29:19;7.63;;;3.67;;
61003;SDS011;46889;37.310;13.582;2022-11-15T03:31:53;8.60;;;3.90;;
61003;SDS011;46889;37.310;13.582;2022-11-15T03:34:27;8.00;;;3.30;;
61003;SDS011;46889;37.310;13.582;2022-11-15T03:36:59;8.25;;;3.50;;
61003;SDS011;46889;37.310;13.582;2022-11-15T03:39:26;9.57;;;3.78;;
61003;SDS011;46889;37.310;13.582;2022-11-15T03:48:14;7.18;;;3.20;;
61003;SDS011;46889;37.310;13.582;2022-11-15T03:51:02;6.30;;;3.75;;
61003;SDS011;46889;37.310;13.582;2022-11-15T03:53:29;8.93;;;3.22;;
61003;SDS011;46889;37.310;13.582;2022-11-15T03:55:57;7.63;;;3.42;;
61003;SDS011;46889;37.310;13.582;2022-11-15T03:58:23;6.35;;;3.65;;
61003;SDS011;46889;37.310;13.582;2022-11-15T04:00:49;11.67;;;3.73;;
61003;SDS011;46889;37.310;13.582;2022-11-15T04:03:36;6.38;;;3.75;;
61003;SDS011;46889;37.310;13.582;2022-11-15T04:06:22;7.53;;;3.42;;
61003;SDS011;46889;37.310;13.582;2022-11-15T04:08:48;6.73;;;4.40;;
61003;SDS011;46889;37.310;13.582;2022-11-15T04:11:16;7.88;;;3.80;;
61003;SDS011;46889;37.310;13.582;2022-11-15T04:16:08;5.03;;;3.42;;
61003;SDS011;46889;37.310;13.582;2022-11-15T04:18:34;8.70;;;4.23;;
61003;SDS011;46889;37.310;13.582;2022-11-15T04:21:00;9.57;;;3.50;;
61003;SDS011;46889;37.310;13.582;2022-11-15T04:23:46;7.40;;;3.85;;
61003;SDS011;46889;37.310;13.582;2022-11-15T04:26:19;5.65;;;3.50;;
61003;SDS011;46889;37.310;13.582;2022-11-15T04:28:48;6.57;;;3.35;;
61003;SDS011;46889;37.310;13.582;2022-11-15T04:31:32;6.57;;;3.60;;
61003;SDS011;46889;37.310;13.582;2022-11-15T04:33:58;6.55;;;3.28;;
61003;SDS011;46889;37.310;13.582;2022-11-15T04:36:24;9.80;;;3.10;;
61003;SDS011;46889;37.310;13.582;2022-11-15T04:39:10;6.47;;;3.15;;
61003;SDS011;46889;37.310;13.582;2022-11-15T04:42:16;5.75;;;3.20;;
61003;SDS011;46889;37.310;13.582;2022-11-15T04:44:42;9.63;;;3.90;;
61003;SDS011;46889;37.310;13.582;2022-11-15T04:47:08;5.97;;;3.47;;
61003;SDS011;46889;37.310;13.582;2022-11-15T04:49:34;3.80;;;2.57;;
61003;SDS011;46889;37.310;13.582;2022-11-15T04:52:00;6.50;;;2.13;;
61003;SDS011;46889;37.310;13.582;2022-11-15T04:54:30;5.88;;;3.00;;
61003;SDS011;46889;37.310;13.582;2022-11-15T04:57:16;8.90;;;3.00;;
61003;SDS011;46889;37.310;13.582;2022-11-15T04:59:42;4.83;;;2.60;;
61003;SDS011;46889;37.310;13.582;2022-11-15T05:02:28;8.10;;;3.20;;
61003;SDS011;46889;37.310;13.582;2022-11-15T05:05:14;4.70;;;2.63;;
61003;SDS011;46889;37.310;13.582;2022-11-15T05:07:44;6.95;;;2.75;;
61003;SDS011;46889;37.310;13.582;2022-11-15T05:10:10;8.55;;;2.97;;
61003;SDS011;46889;37.310;13.582;2022-11-15T05:12:57;6.72;;;2.75;;
61003;SDS011;46889;37.310;13.582;2022-11-15T05:17:50;11.07;;;2.83;;
61003;SDS011;46889;37.310;13.582;2022-11-15T05:20:56;8.23;;;3.05;;
61003;SDS011;46889;37.310;13.582;2022-11-15T05:23:28;6.40;;;3.00;;
61003;SDS011;46889;37.310;13.582;2022-11-15T05:26:15;9.55;;;2.80;;
61003;SDS011;46889;37.310;13.582;2022-11-15T05:28:42;5.75;;;2.67;;
61003;SDS011;46889;37.310;13.582;2022-11-15T05:31:10;5.78;;;2.50;;
61003;SDS011;46889;37.310;13.582;2022-11-15T05:33:38;5.18;;;2.78;;
61003;SDS011;46889;37.310;13.582;2022-11-15T05:36:31;5.65;;;2.72;;
61003;SDS011;46889;37.310;13.582;2022-11-15T05:39:04;6.25;;;2.72;;
61003;SDS011;46889;37.310;13.582;2022-11-15T05:41:54;4.47;;;2.95;;
61003;SDS011;46889;37.310;13.582;2022-11-15T05:44:21;8.32;;;3.08;;
61003;SDS011;46889;37.310;13.582;2022-11-15T05:46:50;9.13;;;2.63;;
61003;SDS011;46889;37.310;13.582;2022-11-15T05:49:19;6.00;;;2.50;;
61003;SDS011;46889;37.310;13.582;2022-11-15T05:51:48;9.30;;;3.85;;
61003;SDS011;46889;37.310;13.582;2022-11-15T05:54:16;5.70;;;2.58;;
61003;SDS011;46889;37.310;13.582;2022-11-15T05:56:44;6.55;;;2.55;;
61003;SDS011;46889;37.310;13.582;2022-11-15T05:59:12;6.00;;;2.80;;
61003;SDS011;46889;37.310;13.582;2022-11-15T06:01:38;7.93;;;3.00;;
61003;SDS011;46889;37.310;13.582;2022-11-15T06:04:08;6.07;;;2.90;;
61003;SDS011;46889;37.310;13.582;2022-11-15T06:06:34;5.63;;;2.53;;
61003;SDS011;46889;37.310;13.582;2022-11-15T06:09:01;3.95;;;2.40;;
61003;SDS011;46889;37.310;13.582;2022-11-15T06:11:29;3.63;;;2.40;;
61003;SDS011;46889;37.310;13.582;2022-11-15T06:13:57;9.55;;;2.60;;
61003;SDS011;46889;37.310;13.582;2022-11-15T06:16:23;6.07;;;2.58;;
61003;SDS011;46889;37.310;13.582;2022-11-15T06:18:49;8.50;;;1.92;;
61003;SDS011;46889;37.310;13.582;2022-11-15T06:21:15;6.63;;;2.37;;
61003;SDS011;46889;37.310;13.582;2022-11-15T06:23:43;7.65;;;2.30;;
61003;SDS011;46889;37.310;13.582;2022-11-15T06:28:37;9.02;;;2.70;;
61003;SDS011;46889;37.310;13.582;2022-11-15T06:31:08;7.40;;;2.50;;
61003;SDS011;46889;37.310;13.582;2022-11-15T06:33:36;5.18;;;2.03;;
61003;SDS011;46889;37.310;13.582;2022-11-15T06:36:12;7.50;;;2.17;;
61003;SDS011;46889;37.310;13.582;2022-11-15T06:38:44;10.13;;;2.80;;
61003;SDS011;46889;37.310;13.582;2022-11-15T06:41:10;4.72;;;1.98;;
61003;SDS011;46889;37.310;13.582;2022-11-15T06:43:41;5.53;;;2.22;;
61003;SDS011;46889;37.310;13.582;2022-11-15T06:46:07;6.40;;;2.20;;
61003;SDS011;46889;37.310;13.582;2022-11-15T06:48:35;7.95;;;2.15;;
61003;SDS011;46889;37.310;13.582;2022-11-15T06:51:02;4.10;;;2.03;;
61003;SDS011;46889;37.310;13.582;2022-11-15T06:53:30;4.90;;;2.33;;
61003;SDS011;46889;37.310;13.582;2022-11-15T06:58:27;8.00;;;2.58;;
61003;SDS011;46889;37.310;13.582;2022-11-15T07:00:57;6.63;;;2.50;;
61003;SDS011;46889;37.310;13.582;2022-11-15T07:03:25;8.35;;;2.92;;
61003;SDS011;46889;37.310;13.582;2022-11-15T07:05:53;6.03;;;2.78;;
61003;SDS011;46889;37.310;13.582;2022-11-15T07:08:21;7.65;;;2.45;;
61003;SDS011;46889;37.310;13.582;2022-11-15T07:13:43;6.32;;;2.80;;
61003;SDS011;46889;37.310;13.582;2022-11-15T07:16:10;5.88;;;2.00;;
61003;SDS011;46889;37.310;13.582;2022-11-15T07:18:39;8.65;;;2.55;;
61003;SDS011;46889;37.310;13.582;2022-11-15T07:21:08;6.05;;;2.35;;
61003;SDS011;46889;37.310;13.582;2022-11-15T07:23:36;11.07;;;3.55;;
61003;SDS011;46889;37.310;13.582;2022-11-15T07:26:17;5.97;;;2.30;;
61003;SDS011;46889;37.310;13.582;2022-11-15T07:28:46;8.23;;;2.67;;
61003;SDS011;46889;37.310;13.582;2022-11-15T07:31:12;7.15;;;2.50;;
61003;SDS011;46889;37.310;13.582;2022-11-15T07:33:44;4.40;;;2.22;;
61003;SDS011;46889;37.310;13.582;2022-11-15T07:36:11;5.82;;;2.05;;
61003;SDS011;46889;37.310;13.582;2022-11-15T07:38:39;4.03;;;2.05;;
61003;SDS011;46889;37.310;13.582;2022-11-15T07:41:06;9.52;;;2.28;;
61003;SDS011;46889;37.310;13.582;2022-11-15T07:43:33;9.30;;;2.50;;
61003;SDS011;46889;37.310;13.582;2022-11-15T07:46:03;6.50;;;2.38;;
61003;SDS011;46889;37.310;13.582;2022-11-15T07:48:31;9.85;;;2.42;;
61003;SDS011;46889;37.310;13.582;2022-11-15T07:51:13;7.75;;;2.50;;
61003;SDS011;46889;37.310;13.582;2022-11-15T07:53:43;7.95;;;2.55;;
61003;SDS011;46889;37.310;13.582;2022-11-15T07:56:11;9.20;;;2.65;;
61003;SDS011;46889;37.310;13.582;2022-11-15T07:58:38;6.85;;;2.58;;
61003;SDS011;46889;37.310;13.582;2022-11-15T08:01:05;8.52;;;2.60;;
61003;SDS011;46889;37.310;13.582;2022-11-15T08:03:33;5.57;;;2.03;;
61003;SDS011;46889;37.310;13.582;2022-11-15T08:06:00;17.83;;;2.78;;
61003;SDS011;46889;37.310;13.582;2022-11-15T08:08:26;7.55;;;2.50;;
61003;SDS011;46889;37.310;13.582;2022-11-15T08:10:53;11.88;;;2.70;;
61003;SDS011;46889;37.310;13.582;2022-11-15T08:13:20;9.02;;;2.40;;
61003;SDS011;46889;37.310;13.582;2022-11-15T08:15:46;8.75;;;2.65;;
61003;SDS011;46889;37.310;13.582;2022-11-15T08:18:13;10.35;;;3.15;;
61003;SDS011;46889;37.310;13.582;2022-11-15T08:20:41;16.70;;;3.22;;
61003;SDS011;46889;37.310;13.582;2022-11-15T08:23:09;18.70;;;3.53;;
61003;SDS011;46889;37.310;13.582;2022-11-15T08:25:38;15.90;;;3.65;;
61003;SDS011;46889;37.310;13.582;2022-11-15T08:28:06;13.02;;;3.50;;
61003;SDS011;46889;37.310;13.582;2022-11-15T08:30:40;14.50;;;2.90;;
61003;SDS011;46889;37.310;13.582;2022-11-15T08:33:13;14.38;;;3.55;;
61003;SDS011;46889;37.310;13.582;2022-11-15T08:35:40;13.80;;;3.40;;
61003;SDS011;46889;37.310;13.582;2022-11-15T08:38:07;7.80;;;3.22;;
61003;SDS011;46889;37.310;13.582;2022-11-15T08:40:35;9.82;;;3.00;;
61003;SDS011;46889;37.310;13.582;2022-11-15T08:43:01;9.18;;;3.05;;
61003;SDS011;46889;37.310;13.582;2022-11-15T08:45:31;10.65;;;3.05;;
61003;SDS011;46889;37.310;13.582;2022-11-15T08:48:00;9.07;;;2.75;;
61003;SDS011;46889;37.310;13.582;2022-11-15T08:50:28;7.30;;;2.90;;
61003;SDS011;46889;37.310;13.582;2022-11-15T08:52:55;9.57;;;2.90;;
61003;SDS011;46889;37.310;13.582;2022-11-15T08:55:22;6.93;;;3.00;;
61003;SDS011;46889;37.310;13.582;2022-11-15T08:57:50;7.80;;;2.80;;
61003;SDS011;46889;37.310;13.582;2022-11-15T09:00:19;10.43;;;2.95;;
61003;SDS011;46889;37.310;13.582;2022-11-15T09:02:47;12.13;;;3.25;;
61003;SDS011;46889;37.310;13.582;2022-11-15T09:05:14;8.60;;;3.13;;
61003;SDS011;46889;37.310;13.582;2022-11-15T09:07:41;11.77;;;2.83;;
61003;SDS011;46889;37.310;13.582;2022-11-15T09:10:07;10.73;;;3.15;;
61003;SDS011;46889;37.310;13.582;2022-11-15T09:12:35;10.05;;;3.22;;
61003;SDS011;46889;37.310;13.582;2022-11-15T09:15:01;15.00;;;3.75;;
61003;SDS011;46889;37.310;13.582;2022-11-15T09:17:28;9.23;;;3.50;;
61003;SDS011;46889;37.310;13.582;2022-11-15T09:19:54;7.72;;;3.05;;
61003;SDS011;46889;37.310;13.582;2022-11-15T09:22:21;9.68;;;3.50;;
61003;SDS011;46889;37.310;13.582;2022-11-15T09:24:48;5.95;;;3.38;;
61003;SDS011;46889;37.310;13.582;2022-11-15T09:27:15;6.50;;;2.75;;
61003;SDS011;46889;37.310;13.582;2022-11-15T09:29:41;6.05;;;2.85;;
61003;SDS011;46889;37.310;13.582;2022-11-15T09:32:07;9.32;;;3.03;;
61003;SDS011;46889;37.310;13.582;2022-11-15T09:34:33;10.23;;;3.60;;
61003;SDS011;46889;37.310;13.582;2022-11-15T09:37:01;7.90;;;2.80;;
61003;SDS011;46889;37.310;13.582;2022-11-15T09:39:29;6.68;;;2.85;;
61003;SDS011;46889;37.310;13.582;2022-11-15T09:41:58;7.43;;;3.10;;
61003;SDS011;46889;37.310;13.582;2022-11-15T09:49:40;6.78;;;2.95;;
61003;SDS011;46889;37.310;13.582;2022-11-15T09:52:06;12.38;;;3.35;;
61003;SDS011;46889;37.310;13.582;2022-11-15T09:54:37;7.78;;;2.83;;
61003;SDS011;46889;37.310;13.582;2022-11-15T09:59:44;6.82;;;2.80;;
61003;SDS011;46889;37.310;13.582;2022-11-15T10:05:20;11.82;;;3.03;;
61003;SDS011;46889;37.310;13.582;2022-11-15T10:10:40;8.00;;;2.45;;
61003;SDS011;46889;37.310;13.582;2022-11-15T10:13:20;6.88;;;3.30;;
61003;SDS011;46889;37.310;13.582;2022-11-15T10:15:51;10.23;;;3.53;;
61003;SDS011;46889;37.310;13.582;2022-11-15T10:18:47;6.13;;;2.80;;
61003;SDS011;46889;37.310;13.582;2022-11-15T10:21:24;11.75;;;4.82;;
61003;SDS011;46889;37.310;13.582;2022-11-15T10:24:25;6.53;;;2.78;;
61003;SDS011;46889;37.310;13.582;2022-11-15T10:26:54;8.90;;;2.35;;
61003;SDS011;46889;37.310;13.582;2022-11-15T10:29:22;6.57;;;2.78;;
61003;SDS011;46889;37.310;13.582;2022-11-15T10:31:49;5.10;;;1.98;;
61003;SDS011;46889;37.310;13.582;2022-11-15T10:34:19;8.30;;;2.63;;
61003;SDS011;46889;37.310;13.582;2022-11-15T10:36:53;5.63;;;2.13;;
61003;SDS011;46889;37.310;13.582;2022-11-15T10:39:23;5.80;;;2.15;;
61003;SDS011;46889;37.310;13.582;2022-11-15T10:41:49;7.85;;;2.55;;
61003;SDS011;46889;37.310;13.582;2022-11-15T10:46:43;10.23;;;2.40;;
61003;SDS011;46889;37.310;13.582;2022-11-15T10:51:56;6.75;;;2.30;;
61003;SDS011;46889;37.310;13.582;2022-11-15T10:54:30;6.45;;;2.50;;
61003;SDS011;46889;37.310;13.582;2022-11-15T10:57:18;12.43;;;3.40;;
61003;SDS011;46889;37.310;13.582;2022-11-15T11:00:13;9.52;;;2.90;;
61003;SDS011;46889;37.310;13.582;2022-11-15T11:02:58;9.20;;;3.03;;
61003;SDS011;46889;37.310;13.582;2022-11-15T11:05:38;9.32;;;2.78;;
61003;SDS011;46889;37.310;13.582;2022-11-15T11:08:18;5.05;;;2.40;;
61003;SDS011;46889;37.310;13.582;2022-11-15T11:10:57;11.57;;;2.83;;
61003;SDS011;46889;37.310;13.582;2022-11-15T11:13:32;9.48;;;2.38;;
61003;SDS011;46889;37.310;13.582;2022-11-15T11:21:46;7.80;;;2.75;;
61003;SDS011;46889;37.310;13.582;2022-11-15T11:24:39;4.88;;;2.17;;
61003;SDS011;46889;37.310;13.582;2022-11-15T11:30:06;8.05;;;2.55;;
61003;SDS011;46889;37.310;13.582;2022-11-15T11:33:02;8.57;;;2.30;;
61003;SDS011;46889;37.310;13.582;2022-11-15T11:43:59;6.88;;;2.20;;
61003;SDS011;46889;37.310;13.582;2022-11-15T11:46:48;5.43;;;2.35;;
61003;SDS011;46889;37.310;13.582;2022-11-15T11:52:19;6.30;;;1.90;;
61003;SDS011;46889;37.310;13.582;2022-11-15T11:55:16;9.70;;;2.45;;
61003;SDS011;46889;37.310;13.582;2022-11-15T12:00:41;5.82;;;2.20;;
61003;SDS011;46889;37.310;13.582;2022-11-15T12:03:30;8.52;;;2.25;;
61003;SDS011;46889;37.310;13.582;2022-11-15T12:06:06;6.88;;;2.05;;
61003;SDS011;46889;37.310;13.582;2022-11-15T12:09:00;12.70;;;2.75;;
61003;SDS011;46889;37.310;13.582;2022-11-15T12:14:24;5.43;;;2.20;;
61003;SDS011;46889;37.310;13.582;2022-11-15T12:16:57;11.75;;;2.70;;
61003;SDS011;46889;37.310;13.582;2022-11-15T12:19:24;8.63;;;2.65;;
61003;SDS011;46889;37.310;13.582;2022-11-15T12:22:11;10.07;;;3.30;;
61003;SDS011;46889;37.310;13.582;2022-11-15T12:27:42;9.23;;;3.42;;
61003;SDS011;46889;37.310;13.582;2022-11-15T12:30:14;5.65;;;2.60;;
61003;SDS011;46889;37.310;13.582;2022-11-15T12:32:51;11.40;;;2.70;;
61003;SDS011;46889;37.310;13.582;2022-11-15T12:35:24;8.02;;;2.35;;
61003;SDS011;46889;37.310;13.582;2022-11-15T12:38:00;7.50;;;2.45;;
61003;SDS011;46889;37.310;13.582;2022-11-15T12:40:28;9.85;;;5.05;;
61003;SDS011;46889;37.310;13.582;2022-11-15T12:45:25;8.15;;;2.10;;
61003;SDS011;46889;37.310;13.582;2022-11-15T12:48:44;4.85;;;2.25;;
61003;SDS011;46889;37.310;13.582;2022-11-15T12:51:00;6.35;;;2.50;;
61003;SDS011;46889;37.310;13.582;2022-11-15T12:53:30;6.65;;;2.13;;
61003;SDS011;46889;37.310;13.582;2022-11-15T12:58:52;6.78;;;2.20;;
61003;SDS011;46889;37.310;13.582;2022-11-15T13:06:47;5.47;;;1.90;;
61003;SDS011;46889;37.310;13.582;2022-11-15T13:12:00;6.70;;;2.13;;
61003;SDS011;46889;37.310;13.582;2022-11-15T13:15:09;6.65;;;2.28;;
61003;SDS011;46889;37.310;13.582;2022-11-15T13:21:01;11.80;;;2.22;;
61003;SDS011;46889;37.310;13.582;2022-11-15T13:23:51;6.68;;;1.92;;
61003;SDS011;46889;37.310;13.582;2022-11-15T13:26:25;6.82;;;2.08;;
61003;SDS011;46889;37.310;13.582;2022-11-15T13:28:52;5.75;;;1.95;;
61003;SDS011;46889;37.310;13.582;2022-11-15T13:31:27;5.40;;;1.98;;
61003;SDS011;46889;37.310;13.582;2022-11-15T13:33:59;6.13;;;2.30;;
61003;SDS011;46889;37.310;13.582;2022-11-15T13:36:30;5.75;;;1.75;;
61003;SDS011;46889;37.310;13.582;2022-11-15T13:39:00;6.07;;;2.00;;
61003;SDS011;46889;37.310;13.582;2022-11-15T13:41:30;6.15;;;2.20;;
61003;SDS011;46889;37.310;13.582;2022-11-15T13:44:17;8.27;;;2.20;;
61003;SDS011;46889;37.310;13.582;2022-11-15T13:46:45;4.35;;;2.22;;
61003;SDS011;46889;37.310;13.582;2022-11-15T13:49:11;6.72;;;2.30;;
61003;SDS011;46889;37.310;13.582;2022-11-15T13:51:45;7.28;;;2.58;;
61003;SDS011;46889;37.310;13.582;2022-11-15T13:56:57;7.95;;;2.20;;
61003;SDS011;46889;37.310;13.582;2022-11-15T14:02:02;4.78;;;2.22;;
61003;SDS011;46889;37.310;13.582;2022-11-15T14:04:37;7.13;;;2.17;;
61003;SDS011;46889;37.310;13.582;2022-11-15T14:07:14;6.22;;;2.28;;
61003;SDS011;46889;37.310;13.582;2022-11-15T14:09:44;6.70;;;2.22;;
61003;SDS011;46889;37.310;13.582;2022-11-15T14:14:56;8.90;;;2.63;;
61003;SDS011;46889;37.310;13.582;2022-11-15T14:19:54;7.85;;;2.45;;
61003;SDS011;46889;37.310;13.582;2022-11-15T14:22:21;6.32;;;2.55;;
61003;SDS011;46889;37.310;13.582;2022-11-15T14:27:35;8.82;;;2.50;;
61003;SDS011;46889;37.310;13.582;2022-11-15T14:30:02;11.45;;;2.53;;
61003;SDS011;46889;37.310;13.582;2022-11-15T14:32:30;4.85;;;2.17;;
61003;SDS011;46889;37.310;13.582;2022-11-15T14:35:17;6.00;;;2.22;;
61003;SDS011;46889;37.310;13.582;2022-11-15T14:37:45;7.60;;;2.60;;
61003;SDS011;46889;37.310;13.582;2022-11-15T14:40:12;9.10;;;2.70;;
61003;SDS011;46889;37.310;13.582;2022-11-15T14:42:48;12.18;;;3.28;;
61003;SDS011;46889;37.310;13.582;2022-11-15T14:47:48;8.63;;;2.65;;
61003;SDS011;46889;37.310;13.582;2022-11-15T14:50:15;8.40;;;2.60;;
61003;SDS011;46889;37.310;13.582;2022-11-15T14:52:50;6.72;;;2.97;;
61003;SDS011;46889;37.310;13.582;2022-11-15T14:55:20;8.38;;;3.00;;
61003;SDS011;46889;37.310;13.582;2022-11-15T14:58:10;8.30;;;3.30;;
61003;SDS011;46889;37.310;13.582;2022-11-15T15:00:37;9.77;;;3.03;;
61003;SDS011;46889;37.310;13.582;2022-11-15T15:03:22;6.90;;;2.55;;
61003;SDS011;46889;37.310;13.582;2022-11-15T15:05:48;8.00;;;2.83;;
61003;SDS011;46889;37.310;13.582;2022-11-15T15:08:17;6.90;;;2.30;;
61003;SDS011;46889;37.310;13.582;2022-11-15T15:10:44;6.15;;;2.70;;
61003;SDS011;46889;37.310;13.582;2022-11-15T15:13:15;7.03;;;2.88;;
61003;SDS011;46889;37.310;13.582;2022-11-15T15:15:55;7.18;;;2.90;;
61003;SDS011;46889;37.310;13.582;2022-11-15T15:18:21;8.82;;;3.28;;
61003;SDS011;46889;37.310;13.582;2022-11-15T15:20:57;8.48;;;3.22;;
61003;SDS011;46889;37.310;13.582;2022-11-15T15:23:35;7.93;;;2.85;;
61003;SDS011;46889;37.310;13.582;2022-11-15T15:26:01;8.93;;;2.92;;
61003;SDS011;46889;37.310;13.582;2022-11-15T15:30:53;11.27;;;3.17;;
61003;SDS011;46889;37.310;13.582;2022-11-15T15:33:19;13.07;;;3.40;;
61003;SDS011;46889;37.310;13.582;2022-11-15T15:35:45;6.05;;;3.40;;
61003;SDS011;46889;37.310;13.582;2022-11-15T15:38:12;8.45;;;3.40;;
61003;SDS011;46889;37.310;13.582;2022-11-15T15:40:40;6.80;;;3.20;;
61003;SDS011;46889;37.310;13.582;2022-11-15T15:43:07;6.88;;;3.80;;
61003;SDS011;46889;37.310;13.582;2022-11-15T15:45:35;14.32;;;5.53;;
61003;SDS011;46889;37.310;13.582;2022-11-15T15:48:03;12.88;;;3.90;;
61003;SDS011;46889;37.310;13.582;2022-11-15T15:50:30;7.82;;;3.67;;
61003;SDS011;46889;37.310;13.582;2022-11-15T15:52:59;10.98;;;3.60;;
61003;SDS011;46889;37.310;13.582;2022-11-15T15:55:27;9.57;;;4.07;;
61003;SDS011;46889;37.310;13.582;2022-11-15T16:00:38;11.18;;;3.83;;
61003;SDS011;46889;37.310;13.582;2022-11-15T16:03:04;9.93;;;3.75;;
61003;SDS011;46889;37.310;13.582;2022-11-15T16:05:30;8.43;;;3.70;;
61003;SDS011;46889;37.310;13.582;2022-11-15T16:07:56;8.48;;;3.88;;
61003;SDS011;46889;37.310;13.582;2022-11-15T16:10:29;14.27;;;4.30;;
61003;SDS011;46889;37.310;13.582;2022-11-15T16:12:59;10.77;;;3.47;;
61003;SDS011;46889;37.310;13.582;2022-11-15T16:15:27;9.70;;;3.92;;
61003;SDS011;46889;37.310;13.582;2022-11-15T16:17:57;8.45;;;3.58;;
61003;SDS011;46889;37.310;13.582;2022-11-15T16:23:03;8.60;;;3.63;;
61003;SDS011;46889;37.310;13.582;2022-11-15T16:25:38;7.90;;;3.70;;
61003;SDS011;46889;37.310;13.582;2022-11-15T16:30:47;7.70;;;4.05;;
61003;SDS011;46889;37.310;13.582;2022-11-15T16:33:15;11.15;;;4.18;;
61003;SDS011;46889;37.310;13.582;2022-11-15T16:35:43;7.78;;;4.38;;
61003;SDS011;46889;37.310;13.582;2022-11-15T16:38:13;11.13;;;4.28;;
61003;SDS011;46889;37.310;13.582;2022-11-15T16:40:40;8.05;;;3.50;;
61003;SDS011;46889;37.310;13.582;2022-11-15T16:43:10;10.70;;;3.70;;
61003;SDS011;46889;37.310;13.582;2022-11-15T16:45:40;9.60;;;3.55;;
61003;SDS011;46889;37.310;13.582;2022-11-15T16:48:06;12.43;;;3.80;;
61003;SDS011;46889;37.310;13.582;2022-11-15T16:50:40;10.95;;;4.47;;
61003;SDS011;46889;37.310;13.582;2022-11-15T16:53:07;15.70;;;4.22;;
61003;SDS011;46889;37.310;13.582;2022-11-15T16:55:37;11.98;;;4.47;;
61003;SDS011;46889;37.310;13.582;2022-11-15T16:58:03;10.10;;;4.03;;
61003;SDS011;46889;37.310;13.582;2022-11-15T17:00:44;12.32;;;4.47;;
61003;SDS011;46889;37.310;13.582;2022-11-15T17:03:14;9.60;;;4.40;;
61003;SDS011;46889;37.310;13.582;2022-11-15T17:05:40;8.25;;;3.85;;
61003;SDS011;46889;37.310;13.582;2022-11-15T17:08:07;11.82;;;4.47;;
61003;SDS011;46889;37.310;13.582;2022-11-15T17:10:45;8.95;;;4.25;;
61003;SDS011;46889;37.310;13.582;2022-11-15T17:13:12;12.75;;;4.28;;
61003;SDS011;46889;37.310;13.582;2022-11-15T17:15:44;11.68;;;4.05;;
61003;SDS011;46889;37.310;13.582;2022-11-15T17:18:11;9.95;;;4.15;;
61003;SDS011;46889;37.310;13.582;2022-11-15T17:20:39;10.32;;;4.50;;
61003;SDS011;46889;37.310;13.582;2022-11-15T17:23:11;9.10;;;4.30;;